ADDS METAR Data INFO
IDs: Format: Raw Decoded Include TAF

Data at: 0751 UTC 17 Oct 2017

KHTO 170735Z AUTO 36005KT 10SM SCT035 SCT041 07/01 A3021 RMK AO2 T00720008
KHTO 170715Z AUTO 02004G16KT 10SM SCT035 07/01 A3020 RMK AO2 T00730007
KHTO 170655Z AUTO 01006KT 10SM SCT037 07/01 A3020 RMK AO2 T00720005
KHTO 170635Z AUTO 02006G14KT 10SM CLR 08/00 A3020 RMK AO2 T00770003
KHTO 170615Z AUTO 01007KT 10SM CLR 08/01 A3019 RMK AO2 T00760009
KHTO 170555Z AUTO 03007KT 10SM SCT037 BKN045 08/02 A3019 RMK AO2 T00800024 10102 20080
KHTO 170535Z AUTO 02004KT 10SM SCT030 BKN037 BKN043 08/03 A3019 RMK AO2 T00840032
KHTO 170515Z AUTO 01006KT 10SM BKN030 BKN036 09/03 A3018 RMK AO2 T00850030
KHTO 170455Z AUTO 35006KT 10SM SCT032 SCT040 08/03 A3018 RMK AO2 T00820029 402000082
KHTO 170435Z AUTO 35009G14KT 10SM SCT042 09/03 A3017 RMK AO2 T00870029
KHTO 170415Z AUTO 35011G15KT 10SM SCT040 09/03 A3017 RMK AO2 T00870026
KHTO 170355Z AUTO 35013G20KT 10SM SCT037 09/03 A3016 RMK AO2 T00880025
KHTO 170335Z AUTO 34013G16KT 10SM CLR 09/02 A3016 RMK AO2 T00910021
KHTO 170315Z AUTO 34010G16KT 10SM CLR 09/02 A3015 RMK AO2 T00920018
KHTO 170255Z AUTO 35011G19KT 10SM CLR 09/02 A3015 RMK AO2 T00940017
KHTO 170235Z AUTO 34011G17KT 10SM CLR 10/02 A3014 RMK AO2 T00960017
KHTO 170215Z AUTO 33008G16KT 290V350 10SM CLR 10/02 A3014 RMK AO2 T00970020
KHTO 170155Z AUTO 34012G18KT 10SM CLR 10/02 A3013 RMK AO2 T01000019
KHTO 170135Z AUTO 33008G14KT 10SM CLR 10/03 A3013 RMK AO2 T00970026
KHTO 170115Z AUTO 33010G14KT 10SM CLR 10/03 A3012 RMK AO2 T00990031
KHTO 170055Z AUTO 34010G15KT 10SM CLR 10/03 A3011 RMK AO2 T01000034
KHTO 170035Z AUTO 33011G21KT 10SM CLR 10/03 A3010 RMK AO2 T01020033
KHTO 170015Z AUTO 33012G17KT 10SM CLR 10/04 A3009 RMK AO2 T01010036
KHTO 162355Z AUTO 33009G19KT 10SM CLR 10/04 A3009 RMK AO2 T01030041 10125 20103
KHTO 162335Z AUTO 33007G15KT 10SM SCT031 11/05 A3008 RMK AO2 T01050045
KHTO 162315Z AUTO 33009KT 10SM SCT031 11/05 A3008 RMK AO2 T01050047
KHTO 162255Z AUTO 33010G15KT 10SM SCT035 11/05 A3006 RMK AO2 T01070047
KHTO 162235Z AUTO 32008G17KT 10SM SCT033 11/05 A3005 RMK AO2 T01100048
KHTO 162215Z AUTO 33008G16KT 290V350 10SM SCT031 11/05 A3004 RMK AO2 T01110050
KHTO 162155Z AUTO 33006KT 10SM SCT031 11/06 A3003 RMK AO2 T01110056
KHTO 162135Z AUTO 33008KT 10SM CLR 11/05 A3002 RMK AO2 T01130054
KHTO 162115Z AUTO 33008KT 10SM CLR 11/06 A3001 RMK AO2 T01130057
KHTO 162055Z AUTO 33008G11KT 10SM CLR 12/06 A2999 RMK AO2 T01150057
KHTO 162035Z AUTO 33006G14KT 10SM SCT030 12/06 A2999 RMK AO2 T01150058
KHTO 162015Z AUTO 32009KT 10SM SCT030 12/06 A2999 RMK AO2 T01170060
KHTO 161955Z AUTO 32006KT 10SM SCT030 SCT120 12/06 A3000 RMK AO2 T01170061
KHTO 161935Z AUTO 32010KT 10SM SCT028 SCT120 12/06 A2999 RMK AO2 T01150060
KHTO 161915Z AUTO 33008KT 10SM CLR 12/06 A2997 RMK AO2 T01180059
KHTO 161855Z AUTO 32008KT 10SM CLR 12/06 A2999 RMK AO2 T01220061
KHTO 161835Z AUTO 32009KT 10SM CLR 12/06 A2997 RMK AO2 T01220059
KHTO 161815Z AUTO 34007KT 10SM CLR 12/06 A2994 RMK AO2 T01220060
KHTO 161755Z AUTO 35006KT 10SM CLR 13/06 A2994 RMK AO2 T01250059 10150 20122
KHTO 161735Z AUTO 33007KT 10SM CLR 12/06 A2996 RMK AO2 T01230056
KHTO 161715Z AUTO 32010G14KT 290V350 10SM CLR 12/06 A2996 RMK AO2 T01220060
KHTO 161655Z AUTO 33008KT 10SM CLR 12/06 A2996 RMK AO2 T01230064
KHTO 161635Z AUTO 31008G14KT 10SM CLR 13/06 A2998 RMK AO2 T01250061
KHTO 161615Z AUTO 34011G15KT 10SM BKN038 13/06 A2996 RMK AO2 T01290062
KHTO 161555Z AUTO 34009G17KT 10SM BKN038 13/06 A2997 RMK AO2 T01330064
KHTO 161535Z AUTO 33010G14KT 10SM BKN036 BKN050 OVC110 14/07 A2995 RMK AO2 T01350072
KHTO 161515Z AUTO 33009G15KT 10SM SCT036 SCT050 BKN110 14/07 A2995 RMK AO2 T01400073
KHTO 161455Z AUTO 33008KT 10SM BKN036 BKN120 14/08 A2995 RMK AO2 T01420080
KHTO 161435Z AUTO 32006KT 10SM BKN036 15/09 A2996 RMK AO2 T01480087
KHTO 161415Z AUTO 34006KT 10SM CLR 15/08 A2995 RMK AO2 T01450081
KHTO 161355Z AUTO 34006KT 10SM SCT037 15/09 A2993 RMK AO2 T01480093
KHTO 161335Z AUTO 32006KT 10SM SCT037 SCT120 15/10 A2994 RMK AO2 T01460096
KHTO 161315Z AUTO 33007KT 10SM SCT035 SCT041 BKN120 15/10 A2993 RMK AO2 T01460104
KHTO 161255Z AUTO 33007KT 10SM SCT026 BKN042 OVC120 15/10 A2992 RMK AO2 T01460104
KHTO 161235Z AUTO 35004KT 10SM BKN026 OVC032 15/11 A2991 RMK AO2 T01470113
KHTO 161215Z AUTO 32003KT 10SM BKN024 BKN031 OVC110 15/12 A2990 RMK AO2 T01480124
KHTO 161155Z AUTO 35004KT 10SM BKN020 OVC026 15/13 A2987 RMK AO2 T01500130 10200 20150
KHTO 161135Z AUTO 33005KT 10SM -DZ BKN020 OVC025 15/14 A2987 RMK AO2 T01540136
KHTO 161115Z AUTO 33005KT 10SM RA SCT020 BKN025 OVC090 16/15 A2986 RMK AO2 T01600149
KHTO 161055Z AUTO 30005KT 10SM -DZ SCT018 SCT075 OVC090 16/15 A2985 RMK AO2 T01610147
KHTO 161035Z AUTO 31005KT 10SM -RA SCT065 SCT070 OVC090 17/14 A2983 RMK AO2 T01740142
KHTO 161015Z AUTO 29007KT 10SM SCT065 OVC100 18/14 A2984 RMK AO2 T01780136
KHTO 160955Z AUTO 32003KT 10SM OVC100 18/14 A2982 RMK AO2 T01810141
KHTO 160935Z AUTO 31004KT 10SM BKN090 OVC110 19/14 A2981 RMK AO2 T01850138
KHTO 160915Z AUTO 31006KT 10SM SCT039 BKN090 OVC120 19/14 A2981 RMK AO2 T01880137
KHTO 160855Z AUTO 31008G14KT 290V350 10SM BKN037 OVC120 19/14 A2980 RMK AO2 T01900140
KHTO 160835Z AUTO 31006KT 10SM SCT017 SCT026 OVC038 19/14 A2980 RMK AO2 T01930141
KHTO 160815Z AUTO 30011G15KT 270V330 10SM BKN017 OVC026 20/17 A2980 RMK AO2 T01980172
KHTO 160755Z AUTO 28008G14KT 10SM SCT010 OVC018 20/18 A2979 RMK AO2 T01990182
KHTO 160735Z AUTO 26006KT 7SM BKN008 OVC013 20/18 A2978 RMK AO2 T01950184
KHTO 160715Z AUTO 24010G14KT 7SM OVC006 19/18 A2977 RMK AO2 T01940184
KHTO 160655Z AUTO 24007G15KT 7SM OVC006 19/18 A2978 RMK AO2 T01930183
KHTO 160635Z AUTO 22011G15KT 7SM OVC006 19/18 A2979 RMK AO2 T01930183
KHTO 160615Z AUTO 24010G19KT 7SM OVC004 19/18 A2980 RMK AO2 T01920183
KHTO 160555Z AUTO 25012G19KT 230V290 7SM OVC004 19/18 A2981 RMK AO2 T01910182 10191 20185
KHTO 160535Z AUTO 23012G19KT 7SM OVC004 19/18 A2980 RMK AO2 T01900181
KHTO 160515Z AUTO 23011G17KT 7SM OVC004 19/18 A2980 RMK AO2 T01880180
KHTO 160455Z AUTO 24009G19KT 7SM OVC004 19/18 A2981 RMK AO2 T01870180 401920167
KHTO 160435Z AUTO 22010G16KT 7SM OVC004 19/18 A2980 RMK AO2 T01860178
KHTO 160415Z AUTO 23011G18KT 7SM OVC006 19/18 A2981 RMK AO2 T01870178
KHTO 160355Z AUTO 23010G18KT 10SM OVC006 19/18 A2982 RMK AO2 T01870176
KHTO 160335Z AUTO 22011G18KT 10SM OVC006 19/18 A2981 RMK AO2 T01870176
KHTO 160315Z AUTO 23013G18KT 10SM OVC006 19/18 A2983 RMK AO2 T01870176
KHTO 160255Z AUTO 22010G17KT 10SM OVC006 19/18 A2983 RMK AO2 T01860175
KHTO 160235Z AUTO 22015G23KT 10SM OVC006 19/18 A2983 RMK AO2 T01860175
KHTO 160215Z AUTO 22014G21KT 10SM OVC006 19/18 A2983 RMK AO2 T01860175
KHTO 160155Z AUTO 22012G21KT 10SM OVC006 19/18 A2983 RMK AO2 T01850175
KHTO 160135Z AUTO 20012G19KT 7SM OVC006 19/18 A2983 RMK AO2 T01850175
KHTO 160115Z AUTO 21012G20KT 10SM OVC006 19/18 A2984 RMK AO2 T01860176
KHTO 160055Z AUTO 21012G23KT 10SM OVC006 19/18 A2984 RMK AO2 T01870175
KHTO 160035Z AUTO 21013G25KT 10SM OVC006 19/18 A2984 RMK AO2 T01860175
KHTO 160015Z AUTO 22014G21KT 10SM OVC006 19/18 A2984 RMK AO2 T01850175
KHTO 152355Z AUTO 21012G18KT 10SM OVC006 19/18 A2985 RMK AO2 T01850175 10190 20185
KHTO 152335Z AUTO 21011G17KT 10SM OVC006 19/18 A2986 RMK AO2 T01850175
KHTO 152315Z AUTO 22012G18KT 10SM OVC006 19/18 A2986 RMK AO2 T01850176
KHTO 152255Z AUTO 22013G18KT 10SM OVC006 19/18 A2986 RMK AO2 T01850176
KHTO 152235Z AUTO 21013G19KT 10SM OVC006 19/18 A2986 RMK AO2 T01850175
KHTO 152215Z AUTO 22011G19KT 10SM OVC006 19/17 A2986 RMK AO2 T01850173
KHTO 152155Z AUTO 22011G20KT 10SM OVC006 19/18 A2987 RMK AO2 T01850175
KHTO 152135Z AUTO 22012G18KT 10SM OVC006 19/18 A2988 RMK AO2 T01870176
KHTO 152115Z AUTO 21009G16KT 10SM OVC006 19/18 A2988 RMK AO2 T01880176
KHTO 152055Z AUTO 23011G18KT 10SM OVC006 19/18 A2989 RMK AO2 T01900178
KHTO 152035Z AUTO 21010G15KT 10SM OVC006 19/18 A2989 RMK AO2 T01900180
KHTO 152015Z AUTO 21007KT 10SM OVC004 19/18 A2990 RMK AO2 T01900182
KHTO 151955Z AUTO 21006KT 2SM BR OVC004 19/19 A2991 RMK AO2 T01900185